sensor_id;sensor_type;location;lat;lon;timestamp;P1;durP1;ratioP1;P2;durP2;ratioP2
8480;SDS011;4277;51.354;6.740;2023-12-07T00:01:11;18.73;;;14.50;;
8480;SDS011;4277;51.354;6.740;2023-12-07T00:03:37;104.70;;;17.00;;
8480;SDS011;4277;51.354;6.740;2023-12-07T00:06:03;23.93;;;13.67;;
8480;SDS011;4277;51.354;6.740;2023-12-07T00:08:29;19.60;;;13.90;;
8480;SDS011;4277;51.354;6.740;2023-12-07T00:10:55;20.27;;;14.40;;
8480;SDS011;4277;51.354;6.740;2023-12-07T00:13:21;21.30;;;14.73;;
8480;SDS011;4277;51.354;6.740;2023-12-07T00:15:47;21.20;;;14.93;;
8480;SDS011;4277;51.354;6.740;2023-12-07T00:18:13;20.50;;;14.77;;
8480;SDS011;4277;51.354;6.740;2023-12-07T00:20:39;23.33;;;16.20;;
8480;SDS011;4277;51.354;6.740;2023-12-07T00:23:05;21.97;;;15.43;;
8480;SDS011;4277;51.354;6.740;2023-12-07T00:25:31;25.50;;;15.63;;
8480;SDS011;4277;51.354;6.740;2023-12-07T00:27:56;39.27;;;15.43;;
8480;SDS011;4277;51.354;6.740;2023-12-07T00:30:22;38.90;;;15.27;;
8480;SDS011;4277;51.354;6.740;2023-12-07T00:32:48;67.13;;;17.20;;
8480;SDS011;4277;51.354;6.740;2023-12-07T00:35:14;47.53;;;16.77;;
8480;SDS011;4277;51.354;6.740;2023-12-07T00:37:41;30.30;;;15.63;;
8480;SDS011;4277;51.354;6.740;2023-12-07T00:40:07;26.57;;;16.03;;
8480;SDS011;4277;51.354;6.740;2023-12-07T00:42:33;35.70;;;17.43;;
8480;SDS011;4277;51.354;6.740;2023-12-07T00:44:59;25.23;;;16.87;;
8480;SDS011;4277;51.354;6.740;2023-12-07T00:47:25;29.70;;;16.83;;
8480;SDS011;4277;51.354;6.740;2023-12-07T00:49:51;23.13;;;14.57;;
8480;SDS011;4277;51.354;6.740;2023-12-07T00:52:17;23.23;;;16.40;;
8480;SDS011;4277;51.354;6.740;2023-12-07T00:54:43;21.77;;;14.97;;
8480;SDS011;4277;51.354;6.740;2023-12-07T00:57:09;24.50;;;17.27;;
8480;SDS011;4277;51.354;6.740;2023-12-07T00:59:35;25.13;;;17.60;;
8480;SDS011;4277;51.354;6.740;2023-12-07T01:04:28;29.83;;;18.80;;
8480;SDS011;4277;51.354;6.740;2023-12-07T01:06:54;29.67;;;18.43;;
8480;SDS011;4277;51.354;6.740;2023-12-07T01:09:20;52.80;;;21.80;;
8480;SDS011;4277;51.354;6.740;2023-12-07T01:11:47;28.40;;;18.87;;
8480;SDS011;4277;51.354;6.740;2023-12-07T01:14:13;31.67;;;19.83;;
8480;SDS011;4277;51.354;6.740;2023-12-07T01:16:39;31.50;;;19.90;;
8480;SDS011;4277;51.354;6.740;2023-12-07T01:19:05;28.20;;;18.10;;
8480;SDS011;4277;51.354;6.740;2023-12-07T01:21:32;29.23;;;19.73;;
8480;SDS011;4277;51.354;6.740;2023-12-07T01:23:58;27.60;;;18.80;;
8480;SDS011;4277;51.354;6.740;2023-12-07T01:26:24;27.23;;;17.10;;
8480;SDS011;4277;51.354;6.740;2023-12-07T01:28:50;26.63;;;18.23;;
8480;SDS011;4277;51.354;6.740;2023-12-07T01:31:16;22.57;;;16.13;;
8480;SDS011;4277;51.354;6.740;2023-12-07T01:33:42;22.23;;;16.43;;
8480;SDS011;4277;51.354;6.740;2023-12-07T01:36:08;25.60;;;16.93;;
8480;SDS011;4277;51.354;6.740;2023-12-07T01:38:34;22.40;;;15.93;;
8480;SDS011;4277;51.354;6.740;2023-12-07T01:41:00;26.83;;;17.93;;
8480;SDS011;4277;51.354;6.740;2023-12-07T01:43:26;23.67;;;16.77;;
8480;SDS011;4277;51.354;6.740;2023-12-07T01:45:53;28.43;;;18.37;;
8480;SDS011;4277;51.354;6.740;2023-12-07T01:48:21;25.27;;;18.03;;
8480;SDS011;4277;51.354;6.740;2023-12-07T01:50:47;26.67;;;18.13;;
8480;SDS011;4277;51.354;6.740;2023-12-07T01:53:13;25.07;;;17.87;;
8480;SDS011;4277;51.354;6.740;2023-12-07T01:55:40;23.40;;;17.53;;
8480;SDS011;4277;51.354;6.740;2023-12-07T01:58:06;28.03;;;18.53;;
8480;SDS011;4277;51.354;6.740;2023-12-07T02:00:33;25.77;;;17.63;;
8480;SDS011;4277;51.354;6.740;2023-12-07T02:03:00;24.00;;;16.37;;
8480;SDS011;4277;51.354;6.740;2023-12-07T02:05:28;938.80;;;54.97;;
8480;SDS011;4277;51.354;6.740;2023-12-07T02:07:54;26.30;;;18.60;;
8480;SDS011;4277;51.354;6.740;2023-12-07T02:10:20;27.63;;;18.87;;
8480;SDS011;4277;51.354;6.740;2023-12-07T02:12:46;30.47;;;20.10;;
8480;SDS011;4277;51.354;6.740;2023-12-07T02:15:13;26.13;;;18.73;;
8480;SDS011;4277;51.354;6.740;2023-12-07T02:22:46;30.40;;;19.00;;
8480;SDS011;4277;51.354;6.740;2023-12-07T02:25:14;24.07;;;17.70;;
8480;SDS011;4277;51.354;6.740;2023-12-07T02:27:41;26.40;;;18.63;;
8480;SDS011;4277;51.354;6.740;2023-12-07T02:30:08;28.00;;;19.27;;
8480;SDS011;4277;51.354;6.740;2023-12-07T02:32:38;29.13;;;18.70;;
8480;SDS011;4277;51.354;6.740;2023-12-07T02:35:05;28.50;;;18.43;;
8480;SDS011;4277;51.354;6.740;2023-12-07T02:37:33;26.80;;;18.87;;
8480;SDS011;4277;51.354;6.740;2023-12-07T02:40:02;28.47;;;19.27;;
8480;SDS011;4277;51.354;6.740;2023-12-07T02:42:29;29.60;;;21.00;;
8480;SDS011;4277;51.354;6.740;2023-12-07T02:44:56;35.03;;;21.67;;
8480;SDS011;4277;51.354;6.740;2023-12-07T02:47:22;27.37;;;19.40;;
8480;SDS011;4277;51.354;6.740;2023-12-07T02:49:48;31.73;;;20.97;;
8480;SDS011;4277;51.354;6.740;2023-12-07T02:52:14;26.27;;;18.70;;
8480;SDS011;4277;51.354;6.740;2023-12-07T02:54:40;28.53;;;20.10;;
8480;SDS011;4277;51.354;6.740;2023-12-07T02:57:06;31.80;;;19.80;;
8480;SDS011;4277;51.354;6.740;2023-12-07T02:59:32;28.70;;;18.23;;
8480;SDS011;4277;51.354;6.740;2023-12-07T03:01:58;30.90;;;19.20;;
8480;SDS011;4277;51.354;6.740;2023-12-07T03:04:24;28.80;;;20.27;;
8480;SDS011;4277;51.354;6.740;2023-12-07T03:06:50;29.13;;;20.07;;
8480;SDS011;4277;51.354;6.740;2023-12-07T03:09:16;26.27;;;18.57;;
8480;SDS011;4277;51.354;6.740;2023-12-07T03:11:42;34.43;;;22.63;;
8480;SDS011;4277;51.354;6.740;2023-12-07T03:14:08;34.33;;;22.27;;
8480;SDS011;4277;51.354;6.740;2023-12-07T03:16:34;32.80;;;21.47;;
8480;SDS011;4277;51.354;6.740;2023-12-07T03:19:03;32.87;;;21.40;;
8480;SDS011;4277;51.354;6.740;2023-12-07T03:21:29;29.37;;;20.40;;
8480;SDS011;4277;51.354;6.740;2023-12-07T03:23:55;29.40;;;20.33;;
8480;SDS011;4277;51.354;6.740;2023-12-07T03:26:21;30.20;;;19.20;;
8480;SDS011;4277;51.354;6.740;2023-12-07T03:28:47;435.03;;;38.90;;
8480;SDS011;4277;51.354;6.740;2023-12-07T03:31:12;31.47;;;21.33;;
8480;SDS011;4277;51.354;6.740;2023-12-07T03:33:40;32.93;;;21.30;;
8480;SDS011;4277;51.354;6.740;2023-12-07T03:36:06;31.93;;;21.93;;
8480;SDS011;4277;51.354;6.740;2023-12-07T03:38:32;35.30;;;22.37;;
8480;SDS011;4277;51.354;6.740;2023-12-07T03:40:58;30.20;;;20.70;;
8480;SDS011;4277;51.354;6.740;2023-12-07T03:43:24;32.70;;;21.63;;
8480;SDS011;4277;51.354;6.740;2023-12-07T03:45:50;33.00;;;21.30;;
8480;SDS011;4277;51.354;6.740;2023-12-07T03:48:17;35.87;;;22.70;;
8480;SDS011;4277;51.354;6.740;2023-12-07T03:50:43;33.33;;;22.27;;
8480;SDS011;4277;51.354;6.740;2023-12-07T03:53:09;31.00;;;20.80;;
8480;SDS011;4277;51.354;6.740;2023-12-07T03:55:35;35.80;;;22.37;;
8480;SDS011;4277;51.354;6.740;2023-12-07T03:58:01;36.57;;;22.00;;
8480;SDS011;4277;51.354;6.740;2023-12-07T04:00:27;34.93;;;22.00;;
8480;SDS011;4277;51.354;6.740;2023-12-07T04:02:53;37.50;;;22.60;;
8480;SDS011;4277;51.354;6.740;2023-12-07T04:05:19;33.93;;;21.80;;
8480;SDS011;4277;51.354;6.740;2023-12-07T04:07:45;39.70;;;23.83;;
8480;SDS011;4277;51.354;6.740;2023-12-07T04:10:11;33.53;;;21.87;;
8480;SDS011;4277;51.354;6.740;2023-12-07T04:12:37;36.00;;;23.87;;
8480;SDS011;4277;51.354;6.740;2023-12-07T04:15:03;37.17;;;23.83;;
8480;SDS011;4277;51.354;6.740;2023-12-07T04:17:30;36.53;;;23.53;;
8480;SDS011;4277;51.354;6.740;2023-12-07T04:19:56;36.73;;;23.97;;
8480;SDS011;4277;51.354;6.740;2023-12-07T04:22:22;33.43;;;21.77;;
8480;SDS011;4277;51.354;6.740;2023-12-07T04:24:48;30.13;;;20.77;;
8480;SDS011;4277;51.354;6.740;2023-12-07T04:27:14;31.23;;;20.10;;
8480;SDS011;4277;51.354;6.740;2023-12-07T04:29:40;33.20;;;21.47;;
8480;SDS011;4277;51.354;6.740;2023-12-07T04:32:07;37.40;;;23.13;;
8480;SDS011;4277;51.354;6.740;2023-12-07T04:34:33;33.10;;;21.07;;
8480;SDS011;4277;51.354;6.740;2023-12-07T04:36:59;32.83;;;20.70;;
8480;SDS011;4277;51.354;6.740;2023-12-07T04:39:25;35.93;;;22.53;;
8480;SDS011;4277;51.354;6.740;2023-12-07T04:41:51;36.20;;;23.97;;
8480;SDS011;4277;51.354;6.740;2023-12-07T04:44:17;35.10;;;21.57;;
8480;SDS011;4277;51.354;6.740;2023-12-07T04:46:44;31.67;;;20.17;;
8480;SDS011;4277;51.354;6.740;2023-12-07T04:49:10;34.10;;;22.30;;
8480;SDS011;4277;51.354;6.740;2023-12-07T04:51:36;41.20;;;24.43;;
8480;SDS011;4277;51.354;6.740;2023-12-07T04:54:02;33.90;;;21.83;;
8480;SDS011;4277;51.354;6.740;2023-12-07T04:56:28;28.53;;;20.10;;
8480;SDS011;4277;51.354;6.740;2023-12-07T04:58:54;38.53;;;23.50;;
8480;SDS011;4277;51.354;6.740;2023-12-07T05:01:20;44.40;;;26.37;;
8480;SDS011;4277;51.354;6.740;2023-12-07T05:03:46;34.50;;;22.63;;
8480;SDS011;4277;51.354;6.740;2023-12-07T05:06:13;37.33;;;24.67;;
8480;SDS011;4277;51.354;6.740;2023-12-07T05:08:39;35.40;;;22.97;;
8480;SDS011;4277;51.354;6.740;2023-12-07T05:11:05;33.27;;;22.87;;
8480;SDS011;4277;51.354;6.740;2023-12-07T05:13:31;36.63;;;23.33;;
8480;SDS011;4277;51.354;6.740;2023-12-07T05:15:58;33.67;;;22.27;;
8480;SDS011;4277;51.354;6.740;2023-12-07T05:18:25;35.03;;;22.40;;
8480;SDS011;4277;51.354;6.740;2023-12-07T05:20:51;39.93;;;24.13;;
8480;SDS011;4277;51.354;6.740;2023-12-07T05:23:17;34.77;;;22.57;;
8480;SDS011;4277;51.354;6.740;2023-12-07T05:25:43;35.07;;;22.30;;
8480;SDS011;4277;51.354;6.740;2023-12-07T05:28:09;33.50;;;22.40;;
8480;SDS011;4277;51.354;6.740;2023-12-07T05:30:35;44.87;;;24.20;;
8480;SDS011;4277;51.354;6.740;2023-12-07T05:33:02;36.67;;;23.40;;
8480;SDS011;4277;51.354;6.740;2023-12-07T05:35:28;39.67;;;24.27;;
8480;SDS011;4277;51.354;6.740;2023-12-07T05:37:54;40.47;;;24.97;;
8480;SDS011;4277;51.354;6.740;2023-12-07T05:40:20;40.30;;;25.43;;
8480;SDS011;4277;51.354;6.740;2023-12-07T05:42:49;43.10;;;25.33;;
8480;SDS011;4277;51.354;6.740;2023-12-07T05:45:16;38.50;;;25.07;;
8480;SDS011;4277;51.354;6.740;2023-12-07T05:47:42;39.33;;;24.27;;
8480;SDS011;4277;51.354;6.740;2023-12-07T05:50:08;43.33;;;25.37;;
8480;SDS011;4277;51.354;6.740;2023-12-07T05:52:34;44.17;;;25.17;;
8480;SDS011;4277;51.354;6.740;2023-12-07T05:55:00;42.57;;;25.17;;
8480;SDS011;4277;51.354;6.740;2023-12-07T05:57:27;41.97;;;25.93;;
8480;SDS011;4277;51.354;6.740;2023-12-07T05:59:53;45.30;;;25.83;;
8480;SDS011;4277;51.354;6.740;2023-12-07T06:02:19;45.80;;;26.37;;
8480;SDS011;4277;51.354;6.740;2023-12-07T06:04:45;42.77;;;26.40;;
8480;SDS011;4277;51.354;6.740;2023-12-07T06:07:11;42.77;;;26.13;;
8480;SDS011;4277;51.354;6.740;2023-12-07T06:09:37;47.90;;;27.37;;
8480;SDS011;4277;51.354;6.740;2023-12-07T06:12:03;44.87;;;27.30;;
8480;SDS011;4277;51.354;6.740;2023-12-07T06:14:29;46.37;;;27.43;;
8480;SDS011;4277;51.354;6.740;2023-12-07T06:16:57;48.80;;;27.90;;
8480;SDS011;4277;51.354;6.740;2023-12-07T06:19:24;46.67;;;27.50;;
8480;SDS011;4277;51.354;6.740;2023-12-07T06:21:50;48.50;;;26.17;;
8480;SDS011;4277;51.354;6.740;2023-12-07T06:24:16;46.03;;;27.23;;
8480;SDS011;4277;51.354;6.740;2023-12-07T06:26:42;42.10;;;24.87;;
8480;SDS011;4277;51.354;6.740;2023-12-07T06:29:08;42.27;;;24.27;;
8480;SDS011;4277;51.354;6.740;2023-12-07T06:31:34;41.20;;;24.83;;
8480;SDS011;4277;51.354;6.740;2023-12-07T06:34:00;37.77;;;23.73;;
8480;SDS011;4277;51.354;6.740;2023-12-07T06:36:27;36.77;;;22.70;;
8480;SDS011;4277;51.354;6.740;2023-12-07T06:38:53;37.43;;;23.77;;
8480;SDS011;4277;51.354;6.740;2023-12-07T06:41:23;38.17;;;22.93;;
8480;SDS011;4277;51.354;6.740;2023-12-07T06:43:49;37.83;;;22.93;;
8480;SDS011;4277;51.354;6.740;2023-12-07T06:46:15;39.93;;;23.97;;
8480;SDS011;4277;51.354;6.740;2023-12-07T06:48:41;38.40;;;23.03;;
8480;SDS011;4277;51.354;6.740;2023-12-07T06:51:07;35.37;;;22.37;;
8480;SDS011;4277;51.354;6.740;2023-12-07T06:53:33;41.50;;;24.03;;
8480;SDS011;4277;51.354;6.740;2023-12-07T06:55:59;40.27;;;23.53;;
8480;SDS011;4277;51.354;6.740;2023-12-07T06:58:25;33.30;;;21.40;;
8480;SDS011;4277;51.354;6.740;2023-12-07T07:00:51;34.40;;;20.33;;
8480;SDS011;4277;51.354;6.740;2023-12-07T07:03:17;32.80;;;19.90;;
8480;SDS011;4277;51.354;6.740;2023-12-07T07:05:43;38.00;;;21.70;;
8480;SDS011;4277;51.354;6.740;2023-12-07T07:08:09;36.60;;;22.00;;
8480;SDS011;4277;51.354;6.740;2023-12-07T07:10:35;35.17;;;21.87;;
8480;SDS011;4277;51.354;6.740;2023-12-07T07:13:01;32.53;;;20.53;;
8480;SDS011;4277;51.354;6.740;2023-12-07T07:15:31;35.60;;;21.40;;
8480;SDS011;4277;51.354;6.740;2023-12-07T07:17:57;36.13;;;21.97;;
8480;SDS011;4277;51.354;6.740;2023-12-07T07:20:24;33.20;;;20.00;;
8480;SDS011;4277;51.354;6.740;2023-12-07T07:22:50;34.40;;;20.73;;
8480;SDS011;4277;51.354;6.740;2023-12-07T07:25:16;37.20;;;22.30;;
8480;SDS011;4277;51.354;6.740;2023-12-07T07:27:44;37.27;;;22.77;;
8480;SDS011;4277;51.354;6.740;2023-12-07T07:30:10;36.57;;;23.13;;
8480;SDS011;4277;51.354;6.740;2023-12-07T07:32:36;39.23;;;22.37;;
8480;SDS011;4277;51.354;6.740;2023-12-07T07:35:02;39.97;;;22.93;;
8480;SDS011;4277;51.354;6.740;2023-12-07T07:37:29;37.00;;;21.30;;
8480;SDS011;4277;51.354;6.740;2023-12-07T07:39:55;36.47;;;21.87;;
8480;SDS011;4277;51.354;6.740;2023-12-07T07:42:21;36.90;;;20.70;;
8480;SDS011;4277;51.354;6.740;2023-12-07T07:44:47;32.13;;;19.93;;
8480;SDS011;4277;51.354;6.740;2023-12-07T07:47:13;30.13;;;19.23;;
8480;SDS011;4277;51.354;6.740;2023-12-07T07:49:39;33.67;;;20.40;;
8480;SDS011;4277;51.354;6.740;2023-12-07T07:52:05;34.33;;;20.43;;
8480;SDS011;4277;51.354;6.740;2023-12-07T07:54:31;37.27;;;21.23;;
8480;SDS011;4277;51.354;6.740;2023-12-07T07:56:57;31.47;;;20.83;;
8480;SDS011;4277;51.354;6.740;2023-12-07T07:59:23;32.27;;;19.73;;
8480;SDS011;4277;51.354;6.740;2023-12-07T08:01:49;31.30;;;20.27;;
8480;SDS011;4277;51.354;6.740;2023-12-07T08:04:15;35.37;;;20.93;;
8480;SDS011;4277;51.354;6.740;2023-12-07T08:06:41;33.47;;;20.27;;
8480;SDS011;4277;51.354;6.740;2023-12-07T08:09:07;32.80;;;20.83;;
8480;SDS011;4277;51.354;6.740;2023-12-07T08:11:34;32.57;;;20.27;;
8480;SDS011;4277;51.354;6.740;2023-12-07T08:14:00;35.27;;;20.77;;
8480;SDS011;4277;51.354;6.740;2023-12-07T08:16:26;225.50;;;26.43;;
8480;SDS011;4277;51.354;6.740;2023-12-07T08:18:53;35.90;;;21.23;;
8480;SDS011;4277;51.354;6.740;2023-12-07T08:21:20;33.73;;;19.80;;
8480;SDS011;4277;51.354;6.740;2023-12-07T08:23:46;33.97;;;20.40;;
8480;SDS011;4277;51.354;6.740;2023-12-07T08:26:12;32.77;;;19.80;;
8480;SDS011;4277;51.354;6.740;2023-12-07T08:28:39;37.57;;;22.43;;
8480;SDS011;4277;51.354;6.740;2023-12-07T08:31:05;31.97;;;21.00;;
8480;SDS011;4277;51.354;6.740;2023-12-07T08:33:31;33.17;;;21.60;;
8480;SDS011;4277;51.354;6.740;2023-12-07T08:36:01;30.80;;;20.97;;
8480;SDS011;4277;51.354;6.740;2023-12-07T08:38:27;34.00;;;23.20;;
8480;SDS011;4277;51.354;6.740;2023-12-07T08:40:53;35.53;;;23.43;;
8480;SDS011;4277;51.354;6.740;2023-12-07T08:43:20;34.07;;;20.67;;
8480;SDS011;4277;51.354;6.740;2023-12-07T08:45:47;30.33;;;20.13;;
8480;SDS011;4277;51.354;6.740;2023-12-07T08:48:13;25.40;;;17.70;;
8480;SDS011;4277;51.354;6.740;2023-12-07T08:50:39;26.30;;;17.13;;
8480;SDS011;4277;51.354;6.740;2023-12-07T08:53:05;24.60;;;17.20;;
8480;SDS011;4277;51.354;6.740;2023-12-07T08:55:32;25.53;;;17.17;;
8480;SDS011;4277;51.354;6.740;2023-12-07T08:57:58;23.87;;;16.10;;
8480;SDS011;4277;51.354;6.740;2023-12-07T09:00:25;171.87;;;25.83;;
8480;SDS011;4277;51.354;6.740;2023-12-07T09:02:51;24.40;;;17.87;;
8480;SDS011;4277;51.354;6.740;2023-12-07T09:05:17;30.10;;;19.07;;
8480;SDS011;4277;51.354;6.740;2023-12-07T09:07:43;27.87;;;18.87;;
8480;SDS011;4277;51.354;6.740;2023-12-07T09:10:10;26.17;;;16.80;;
8480;SDS011;4277;51.354;6.740;2023-12-07T09:12:36;25.80;;;17.77;;
8480;SDS011;4277;51.354;6.740;2023-12-07T09:15:03;28.60;;;18.03;;
8480;SDS011;4277;51.354;6.740;2023-12-07T09:17:29;28.87;;;17.07;;
8480;SDS011;4277;51.354;6.740;2023-12-07T09:19:55;27.80;;;18.63;;
8480;SDS011;4277;51.354;6.740;2023-12-07T09:22:21;30.23;;;19.63;;
8480;SDS011;4277;51.354;6.740;2023-12-07T09:24:47;30.10;;;19.40;;
8480;SDS011;4277;51.354;6.740;2023-12-07T09:27:13;29.83;;;20.40;;
8480;SDS011;4277;51.354;6.740;2023-12-07T09:29:39;33.23;;;20.20;;
8480;SDS011;4277;51.354;6.740;2023-12-07T09:32:06;27.53;;;17.70;;
8480;SDS011;4277;51.354;6.740;2023-12-07T09:34:32;30.00;;;20.43;;
8480;SDS011;4277;51.354;6.740;2023-12-07T09:37:11;27.40;;;17.93;;
8480;SDS011;4277;51.354;6.740;2023-12-07T09:39:37;28.63;;;19.00;;
8480;SDS011;4277;51.354;6.740;2023-12-07T09:42:03;27.77;;;18.30;;
8480;SDS011;4277;51.354;6.740;2023-12-07T09:44:29;26.47;;;18.47;;
8480;SDS011;4277;51.354;6.740;2023-12-07T09:46:55;28.20;;;18.87;;
8480;SDS011;4277;51.354;6.740;2023-12-07T09:49:21;28.77;;;19.93;;
8480;SDS011;4277;51.354;6.740;2023-12-07T09:51:47;31.90;;;19.20;;
8480;SDS011;4277;51.354;6.740;2023-12-07T09:54:14;25.87;;;17.10;;
8480;SDS011;4277;51.354;6.740;2023-12-07T09:56:40;25.47;;;18.10;;
8480;SDS011;4277;51.354;6.740;2023-12-07T09:59:06;28.27;;;19.30;;
8480;SDS011;4277;51.354;6.740;2023-12-07T10:01:32;28.13;;;18.53;;
8480;SDS011;4277;51.354;6.740;2023-12-07T10:06:42;24.83;;;17.93;;
8480;SDS011;4277;51.354;6.740;2023-12-07T10:09:12;22.87;;;17.30;;
8480;SDS011;4277;51.354;6.740;2023-12-07T10:11:39;28.00;;;18.30;;
8480;SDS011;4277;51.354;6.740;2023-12-07T10:14:05;24.60;;;18.00;;
8480;SDS011;4277;51.354;6.740;2023-12-07T10:16:32;26.00;;;18.20;;
8480;SDS011;4277;51.354;6.740;2023-12-07T10:19:35;23.67;;;17.60;;
8480;SDS011;4277;51.354;6.740;2023-12-07T10:21:54;25.90;;;17.30;;
8480;SDS011;4277;51.354;6.740;2023-12-07T10:24:21;24.67;;;17.83;;
8480;SDS011;4277;51.354;6.740;2023-12-07T10:26:48;25.63;;;17.47;;
8480;SDS011;4277;51.354;6.740;2023-12-07T10:29:16;21.17;;;16.50;;
8480;SDS011;4277;51.354;6.740;2023-12-07T10:31:42;22.07;;;16.07;;
8480;SDS011;4277;51.354;6.740;2023-12-07T10:34:09;24.80;;;16.97;;
8480;SDS011;4277;51.354;6.740;2023-12-07T10:36:35;20.53;;;15.37;;
8480;SDS011;4277;51.354;6.740;2023-12-07T10:39:01;22.80;;;15.30;;
8480;SDS011;4277;51.354;6.740;2023-12-07T10:41:31;23.73;;;15.47;;
8480;SDS011;4277;51.354;6.740;2023-12-07T10:43:59;24.67;;;15.20;;
8480;SDS011;4277;51.354;6.740;2023-12-07T10:46:26;20.97;;;15.30;;
8480;SDS011;4277;51.354;6.740;2023-12-07T10:48:59;19.10;;;14.57;;
8480;SDS011;4277;51.354;6.740;2023-12-07T10:51:41;24.03;;;14.97;;
8480;SDS011;4277;51.354;6.740;2023-12-07T10:54:07;23.20;;;14.53;;
8480;SDS011;4277;51.354;6.740;2023-12-07T10:56:43;22.00;;;14.90;;
8480;SDS011;4277;51.354;6.740;2023-12-07T10:59:10;21.13;;;15.30;;
8480;SDS011;4277;51.354;6.740;2023-12-07T11:01:39;17.93;;;13.63;;
8480;SDS011;4277;51.354;6.740;2023-12-07T11:04:05;20.53;;;14.87;;
8480;SDS011;4277;51.354;6.740;2023-12-07T11:06:32;18.53;;;13.70;;
8480;SDS011;4277;51.354;6.740;2023-12-07T11:08:59;18.50;;;13.63;;
8480;SDS011;4277;51.354;6.740;2023-12-07T11:16:31;17.97;;;13.10;;
8480;SDS011;4277;51.354;6.740;2023-12-07T11:18:58;18.27;;;13.90;;
8480;SDS011;4277;51.354;6.740;2023-12-07T11:21:24;18.77;;;14.03;;
8480;SDS011;4277;51.354;6.740;2023-12-07T11:23:51;20.80;;;13.90;;
8480;SDS011;4277;51.354;6.740;2023-12-07T11:26:24;20.07;;;13.30;;
8480;SDS011;4277;51.354;6.740;2023-12-07T11:28:50;17.83;;;13.30;;
8480;SDS011;4277;51.354;6.740;2023-12-07T11:31:16;20.70;;;13.27;;
8480;SDS011;4277;51.354;6.740;2023-12-07T11:33:42;16.63;;;12.07;;
8480;SDS011;4277;51.354;6.740;2023-12-07T11:36:10;17.90;;;13.60;;
8480;SDS011;4277;51.354;6.740;2023-12-07T11:38:37;17.33;;;12.90;;
8480;SDS011;4277;51.354;6.740;2023-12-07T11:41:04;17.93;;;13.00;;
8480;SDS011;4277;51.354;6.740;2023-12-07T11:46:05;17.23;;;13.10;;
8480;SDS011;4277;51.354;6.740;2023-12-07T11:48:32;15.67;;;12.83;;
8480;SDS011;4277;51.354;6.740;2023-12-07T11:51:07;17.30;;;13.53;;
8480;SDS011;4277;51.354;6.740;2023-12-07T11:53:34;18.60;;;13.07;;
8480;SDS011;4277;51.354;6.740;2023-12-07T11:56:01;17.20;;;12.77;;
8480;SDS011;4277;51.354;6.740;2023-12-07T11:58:28;17.27;;;12.87;;
8480;SDS011;4277;51.354;6.740;2023-12-07T12:00:55;15.80;;;12.33;;
8480;SDS011;4277;51.354;6.740;2023-12-07T12:03:22;17.77;;;12.73;;
8480;SDS011;4277;51.354;6.740;2023-12-07T12:05:48;17.70;;;12.87;;
8480;SDS011;4277;51.354;6.740;2023-12-07T12:08:15;17.50;;;12.50;;
8480;SDS011;4277;51.354;6.740;2023-12-07T12:10:42;17.00;;;12.10;;
8480;SDS011;4277;51.354;6.740;2023-12-07T12:13:08;17.07;;;12.77;;
8480;SDS011;4277;51.354;6.740;2023-12-07T12:15:34;18.07;;;12.50;;
8480;SDS011;4277;51.354;6.740;2023-12-07T12:18:01;17.03;;;12.00;;
8480;SDS011;4277;51.354;6.740;2023-12-07T12:20:27;16.33;;;12.40;;
8480;SDS011;4277;51.354;6.740;2023-12-07T12:22:53;13.57;;;11.30;;
8480;SDS011;4277;51.354;6.740;2023-12-07T12:25:23;16.77;;;12.00;;
8480;SDS011;4277;51.354;6.740;2023-12-07T12:27:56;17.23;;;12.90;;
8480;SDS011;4277;51.354;6.740;2023-12-07T12:30:23;15.97;;;11.80;;
8480;SDS011;4277;51.354;6.740;2023-12-07T12:32:49;17.90;;;12.47;;
8480;SDS011;4277;51.354;6.740;2023-12-07T12:35:16;17.37;;;12.77;;
8480;SDS011;4277;51.354;6.740;2023-12-07T12:37:42;18.97;;;12.60;;
8480;SDS011;4277;51.354;6.740;2023-12-07T12:40:09;16.87;;;12.87;;
8480;SDS011;4277;51.354;6.740;2023-12-07T12:42:35;16.27;;;12.13;;
8480;SDS011;4277;51.354;6.740;2023-12-07T12:45:04;15.43;;;11.80;;
8480;SDS011;4277;51.354;6.740;2023-12-07T12:47:31;15.57;;;11.60;;
8480;SDS011;4277;51.354;6.740;2023-12-07T12:49:59;15.40;;;11.60;;
8480;SDS011;4277;51.354;6.740;2023-12-07T12:52:25;16.90;;;11.60;;
8480;SDS011;4277;51.354;6.740;2023-12-07T12:54:51;15.43;;;11.47;;
8480;SDS011;4277;51.354;6.740;2023-12-07T12:57:17;14.93;;;11.40;;
8480;SDS011;4277;51.354;6.740;2023-12-07T12:59:47;14.77;;;10.70;;
8480;SDS011;4277;51.354;6.740;2023-12-07T13:02:13;14.93;;;10.60;;
8480;SDS011;4277;51.354;6.740;2023-12-07T13:04:39;15.73;;;11.13;;
8480;SDS011;4277;51.354;6.740;2023-12-07T13:07:05;12.83;;;10.67;;
8480;SDS011;4277;51.354;6.740;2023-12-07T13:09:31;14.23;;;11.23;;
8480;SDS011;4277;51.354;6.740;2023-12-07T13:11:57;15.50;;;10.60;;
8480;SDS011;4277;51.354;6.740;2023-12-07T13:14:23;12.43;;;10.47;;
8480;SDS011;4277;51.354;6.740;2023-12-07T13:16:49;14.90;;;10.57;;
8480;SDS011;4277;51.354;6.740;2023-12-07T13:19:16;15.80;;;10.67;;
8480;SDS011;4277;51.354;6.740;2023-12-07T13:21:42;13.30;;;10.60;;
8480;SDS011;4277;51.354;6.740;2023-12-07T13:24:07;13.50;;;10.67;;
8480;SDS011;4277;51.354;6.740;2023-12-07T13:26:37;14.07;;;10.70;;
8480;SDS011;4277;51.354;6.740;2023-12-07T13:29:03;16.20;;;10.23;;
8480;SDS011;4277;51.354;6.740;2023-12-07T13:31:29;13.43;;;10.27;;
8480;SDS011;4277;51.354;6.740;2023-12-07T13:33:55;13.23;;;9.93;;
8480;SDS011;4277;51.354;6.740;2023-12-07T13:36:22;15.03;;;9.67;;
8480;SDS011;4277;51.354;6.740;2023-12-07T13:38:50;12.27;;;9.87;;
8480;SDS011;4277;51.354;6.740;2023-12-07T13:41:16;12.83;;;9.50;;
8480;SDS011;4277;51.354;6.740;2023-12-07T13:43:42;10.77;;;9.33;;
8480;SDS011;4277;51.354;6.740;2023-12-07T13:46:08;11.70;;;9.13;;
8480;SDS011;4277;51.354;6.740;2023-12-07T13:48:35;11.60;;;9.47;;
8480;SDS011;4277;51.354;6.740;2023-12-07T13:51:01;12.80;;;9.43;;
8480;SDS011;4277;51.354;6.740;2023-12-07T13:53:29;12.33;;;9.20;;
8480;SDS011;4277;51.354;6.740;2023-12-07T13:55:55;10.77;;;8.67;;
8480;SDS011;4277;51.354;6.740;2023-12-07T13:58:21;10.70;;;8.87;;
8480;SDS011;4277;51.354;6.740;2023-12-07T14:00:47;12.33;;;9.13;;
8480;SDS011;4277;51.354;6.740;2023-12-07T14:03:13;13.53;;;9.13;;
8480;SDS011;4277;51.354;6.740;2023-12-07T14:05:39;12.93;;;9.23;;
8480;SDS011;4277;51.354;6.740;2023-12-07T14:08:05;11.43;;;9.10;;
8480;SDS011;4277;51.354;6.740;2023-12-07T14:10:31;10.03;;;8.33;;
8480;SDS011;4277;51.354;6.740;2023-12-07T14:12:57;13.00;;;9.10;;
8480;SDS011;4277;51.354;6.740;2023-12-07T14:15:23;10.77;;;8.87;;
8480;SDS011;4277;51.354;6.740;2023-12-07T14:17:49;11.23;;;8.33;;
8480;SDS011;4277;51.354;6.740;2023-12-07T14:20:15;11.20;;;9.13;;
8480;SDS011;4277;51.354;6.740;2023-12-07T14:22:41;12.27;;;8.87;;
8480;SDS011;4277;51.354;6.740;2023-12-07T14:25:07;13.67;;;9.13;;
8480;SDS011;4277;51.354;6.740;2023-12-07T14:27:33;14.23;;;8.77;;
8480;SDS011;4277;51.354;6.740;2023-12-07T14:29:59;11.77;;;9.00;;
8480;SDS011;4277;51.354;6.740;2023-12-07T14:32:25;11.13;;;8.37;;
8480;SDS011;4277;51.354;6.740;2023-12-07T14:34:52;12.77;;;8.80;;
8480;SDS011;4277;51.354;6.740;2023-12-07T14:37:18;11.40;;;8.37;;
8480;SDS011;4277;51.354;6.740;2023-12-07T14:39:44;11.07;;;8.33;;
8480;SDS011;4277;51.354;6.740;2023-12-07T14:42:10;12.10;;;9.13;;
8480;SDS011;4277;51.354;6.740;2023-12-07T14:44:36;11.67;;;8.77;;
8480;SDS011;4277;51.354;6.740;2023-12-07T14:47:02;11.27;;;8.57;;
8480;SDS011;4277;51.354;6.740;2023-12-07T14:49:28;12.70;;;8.50;;
8480;SDS011;4277;51.354;6.740;2023-12-07T14:51:54;11.73;;;8.30;;
8480;SDS011;4277;51.354;6.740;2023-12-07T14:54:25;11.87;;;7.93;;
8480;SDS011;4277;51.354;6.740;2023-12-07T14:56:52;12.37;;;8.27;;
8480;SDS011;4277;51.354;6.740;2023-12-07T14:59:18;12.37;;;8.30;;
8480;SDS011;4277;51.354;6.740;2023-12-07T15:01:45;13.13;;;8.83;;